Terminal Aerodrome Forecast
Issued by NWS

Home | Current Version | Previous Version | Text Only | Print | Product List | Glossary On
Versions: 1 2 3 4 5 6 7 8 9 10 11 12 13 14 15 16 17 18 19 20 21 22 23 24 25 26
000
FTUS44 KTSA 221720
TAFRVS
TAF
KRVS 221720Z 2218/2318 20009KT P6SM OVC025
     FM222100 20010KT P6SM BKN035 PROB30 2304/2310 5SM -TSRA BR
      BKN025CB
     FM231000 01006KT P6SM BKN025
      TEMPO 2310/2314 4SM TSRA OVC015CB
     FM231400 01005KT 5SM -RA BKN025=

USA.gov is the U.S. government's official web portal to all federal, state and local government web resources and services.